createdAt,value
2023-01-29T00:01:39.646Z,8.78
2023-01-29T00:04:09.090Z,8.72
2023-01-29T00:06:36.099Z,8.72
2023-01-29T00:09:03.107Z,8.76
2023-01-29T00:11:31.505Z,8.73
2023-01-29T00:13:58.970Z,8.73
2023-01-29T00:16:25.971Z,8.70
2023-01-29T00:18:53.004Z,8.72
2023-01-29T00:21:22.411Z,8.73
2023-01-29T00:23:50.159Z,8.72
2023-01-29T00:26:18.776Z,8.74
2023-01-29T00:28:49.625Z,8.68
2023-01-29T00:31:20.844Z,8.72
2023-01-29T00:33:48.768Z,8.73
2023-01-29T00:36:17.607Z,8.76
2023-01-29T00:38:54.737Z,8.80
2023-01-29T00:41:41.770Z,8.75
2023-01-29T00:44:27.284Z,8.78
2023-01-29T00:46:54.876Z,8.79
2023-01-29T00:49:23.259Z,8.84
2023-01-29T00:52:09.022Z,8.88
2023-01-29T00:54:38.183Z,8.89
2023-01-29T00:57:05.147Z,8.91
2023-01-29T00:59:32.251Z,8.93
2023-01-29T01:02:17.991Z,8.93
2023-01-29T01:04:45.091Z,8.94
2023-01-29T01:09:57.356Z,8.95
2023-01-29T01:12:24.363Z,8.93
2023-01-29T01:14:51.416Z,8.91
2023-01-29T01:17:19.609Z,8.90
2023-01-29T01:19:46.987Z,8.91
2023-01-29T01:22:14.028Z,8.86
2023-01-29T01:24:40.935Z,8.84
2023-01-29T01:27:08.187Z,8.83
2023-01-29T01:29:35.192Z,8.82
2023-01-29T01:32:02.484Z,8.82
2023-01-29T01:34:30.091Z,8.83
2023-01-29T01:36:57.171Z,8.77
2023-01-29T01:39:25.159Z,8.82
2023-01-29T01:41:55.963Z,8.80
2023-01-29T01:44:53.676Z,8.83
2023-01-29T01:47:48.287Z,8.81
2023-01-29T01:50:30.531Z,8.81
2023-01-29T01:53:09.812Z,8.82
2023-01-29T01:55:50.459Z,8.79
2023-01-29T01:58:24.416Z,8.82
2023-01-29T02:00:54.137Z,8.80
2023-01-29T02:03:42.857Z,8.79
2023-01-29T02:06:29.718Z,8.80
2023-01-29T02:09:20.762Z,8.79
2023-01-29T02:11:47.880Z,8.79
2023-01-29T02:14:14.916Z,8.81
2023-01-29T02:16:42.278Z,8.76
2023-01-29T02:19:27.901Z,8.75
2023-01-29T02:22:07.265Z,8.67
2023-01-29T02:25:09.874Z,8.67
2023-01-29T02:27:49.159Z,8.66
2023-01-29T02:30:34.423Z,8.63
2023-01-29T02:33:22.884Z,8.64
2023-01-29T02:36:02.993Z,8.64
2023-01-29T02:39:15.917Z,8.61
2023-01-29T02:42:06.251Z,8.60
2023-01-29T02:44:42.489Z,8.57
2023-01-29T02:47:29.686Z,8.55
2023-01-29T02:50:06.772Z,8.53
2023-01-29T02:52:40.080Z,8.53
2023-01-29T02:55:13.785Z,8.49
2023-01-29T02:57:51.032Z,8.48
2023-01-29T03:00:24.848Z,8.45
2023-01-29T03:02:59.713Z,8.44
2023-01-29T03:05:34.286Z,8.41
2023-01-29T03:08:11.370Z,8.39
2023-01-29T03:10:44.022Z,8.37
2023-01-29T03:13:18.600Z,8.31
2023-01-29T03:16:01.592Z,8.33
2023-01-29T03:18:50.987Z,8.32
2023-01-29T03:21:43.905Z,8.30
2023-01-29T03:24:34.006Z,8.27
2023-01-29T03:27:22.626Z,8.24
2023-01-29T03:30:11.309Z,8.24
2023-01-29T03:32:54.092Z,8.18
2023-01-29T03:35:36.674Z,8.12
2023-01-29T03:38:07.626Z,8.07
2023-01-29T03:40:55.994Z,8.08
2023-01-29T03:43:35.518Z,8.05
2023-01-29T03:46:29.439Z,8.02
2023-01-29T03:49:16.126Z,7.96
2023-01-29T03:52:06.044Z,7.93
2023-01-29T03:54:43.587Z,7.89
2023-01-29T03:57:29.264Z,7.89
2023-01-29T04:00:06.110Z,7.85
2023-01-29T04:02:55.680Z,7.82
2023-01-29T04:05:29.481Z,7.82
2023-01-29T04:08:14.685Z,7.76
2023-01-29T04:10:45.182Z,7.77
2023-01-29T04:13:15.928Z,7.81
2023-01-29T04:15:50.965Z,7.75
2023-01-29T04:18:24.766Z,7.76
2023-01-29T04:21:07.374Z,7.80
2023-01-29T04:23:34.705Z,7.86
2023-01-29T04:26:28.185Z,7.89
2023-01-29T04:29:38.222Z,7.90
2023-01-29T04:32:23.444Z,7.92
2023-01-29T04:35:02.722Z,7.94
2023-01-29T04:37:50.662Z,7.94
2023-01-29T04:40:30.919Z,7.93
2023-01-29T04:43:08.418Z,7.93
2023-01-29T04:45:45.225Z,7.90
2023-01-29T04:48:27.322Z,7.91
2023-01-29T04:51:13.135Z,7.91
2023-01-29T04:54:11.146Z,7.90
2023-01-29T04:56:59.870Z,7.88
2023-01-29T04:59:35.626Z,7.89
2023-01-29T05:02:04.249Z,7.86
2023-01-29T05:04:34.517Z,7.88
2023-01-29T05:07:09.074Z,7.84
2023-01-29T05:09:37.928Z,7.81
2023-01-29T05:12:09.229Z,7.80
2023-01-29T05:14:38.086Z,7.78
2023-01-29T05:17:13.870Z,7.74
2023-01-29T05:19:40.818Z,7.71
2023-01-29T05:22:11.185Z,7.69
2023-01-29T05:24:38.527Z,7.65
2023-01-29T05:27:24.547Z,7.64
2023-01-29T05:29:52.001Z,7.62
2023-01-29T05:32:19.172Z,7.63
2023-01-29T05:34:46.881Z,7.62
2023-01-29T05:37:13.769Z,7.61
2023-01-29T05:39:40.794Z,7.59
2023-01-29T05:42:07.851Z,7.59
2023-01-29T05:44:34.855Z,7.55
2023-01-29T05:47:04.470Z,7.49
2023-01-29T05:49:31.420Z,7.46
2023-01-29T05:51:58.338Z,7.43
2023-01-29T05:54:25.269Z,7.37
2023-01-29T05:56:52.187Z,7.37
2023-01-29T05:59:19.183Z,7.33
2023-01-29T06:01:46.088Z,7.31
2023-01-29T06:04:13.063Z,7.22
2023-01-29T06:06:39.950Z,7.18
2023-01-29T06:09:06.871Z,7.13
2023-01-29T06:11:33.806Z,7.09
2023-01-29T06:14:00.766Z,7.01
2023-01-29T06:16:27.713Z,6.93
2023-01-29T06:18:54.742Z,6.86
2023-01-29T06:21:21.677Z,6.77
2023-01-29T06:23:48.640Z,6.69
2023-01-29T06:26:16.141Z,6.64
2023-01-29T06:28:43.898Z,6.58
2023-01-29T06:31:30.421Z,6.51
2023-01-29T06:33:59.090Z,6.49
2023-01-29T06:36:26.073Z,6.46
2023-01-29T06:38:53.043Z,6.38
2023-01-29T06:41:22.954Z,6.37
2023-01-29T06:43:50.026Z,6.31
2023-01-29T06:46:17.610Z,6.29
2023-01-29T06:48:44.620Z,6.25
2023-01-29T06:51:11.690Z,6.22
2023-01-29T06:53:40.188Z,6.19
2023-01-29T06:56:08.130Z,6.20
2023-01-29T06:58:38.867Z,6.19
2023-01-29T07:01:17.381Z,6.19
2023-01-29T07:03:52.571Z,6.19
2023-01-29T07:06:20.397Z,6.18
2023-01-29T07:08:47.333Z,6.15
2023-01-29T07:11:14.291Z,6.13
2023-01-29T07:13:41.284Z,6.13
2023-01-29T07:16:08.248Z,6.12
2023-01-29T07:18:35.553Z,6.12
2023-01-29T07:21:07.948Z,6.12
2023-01-29T07:23:35.514Z,6.12
2023-01-29T07:26:06.738Z,6.18
2023-01-29T07:28:38.314Z,6.19
2023-01-29T07:31:06.109Z,6.23
2023-01-29T07:33:34.280Z,6.29
2023-01-29T07:36:01.717Z,6.38
2023-01-29T07:38:28.677Z,6.52
2023-01-29T07:40:55.753Z,7.04
2023-01-29T07:43:24.910Z,7.80
2023-01-29T07:45:52.294Z,8.56
2023-01-29T07:48:19.695Z,9.16
2023-01-29T07:50:55.600Z,9.84
2023-01-29T07:53:22.538Z,10.52
2023-01-29T07:55:49.550Z,11.13
2023-01-29T07:58:16.495Z,11.78
2023-01-29T08:00:43.881Z,12.34
2023-01-29T08:03:20.183Z,12.93
2023-01-29T08:05:47.608Z,13.47
2023-01-29T08:08:14.978Z,14.00
2023-01-29T08:10:42.476Z,14.46
2023-01-29T08:13:09.857Z,15.01
2023-01-29T08:15:39.049Z,15.24
2023-01-29T08:18:06.659Z,15.99
2023-01-29T08:20:33.787Z,16.51
2023-01-29T08:23:08.681Z,16.98
2023-01-29T08:25:36.067Z,17.41
2023-01-29T08:28:02.995Z,17.85
2023-01-29T08:30:32.253Z,18.35
2023-01-29T08:32:59.324Z,18.59
2023-01-29T08:35:27.249Z,18.80
2023-01-29T08:37:55.747Z,19.04
2023-01-29T08:40:23.026Z,19.32
2023-01-29T08:42:49.879Z,19.85
2023-01-29T08:45:17.221Z,20.29
2023-01-29T08:47:50.299Z,20.85
2023-01-29T08:50:18.416Z,21.23
2023-01-29T08:52:46.213Z,21.59
2023-01-29T08:55:14.143Z,21.79
2023-01-29T08:57:41.155Z,22.10
2023-01-29T09:00:10.175Z,21.53
2023-01-29T09:02:37.588Z,21.10
2023-01-29T09:05:05.559Z,20.92
2023-01-29T09:07:32.704Z,19.96
2023-01-29T09:09:59.752Z,19.21
2023-01-29T09:12:26.785Z,18.67
2023-01-29T09:14:53.767Z,18.54
2023-01-29T09:17:20.795Z,18.48
2023-01-29T09:19:47.686Z,18.45
2023-01-29T09:22:14.794Z,18.29
2023-01-29T09:24:41.697Z,18.52
2023-01-29T09:27:10.112Z,18.91
2023-01-29T09:29:37.851Z,18.96
2023-01-29T09:32:05.178Z,18.77
2023-01-29T09:34:34.381Z,19.12
2023-01-29T09:37:01.373Z,19.93
2023-01-29T09:39:28.319Z,20.43
2023-01-29T09:42:20.128Z,21.15
2023-01-29T09:45:10.299Z,19.86
2023-01-29T09:47:37.748Z,19.53
2023-01-29T09:50:08.182Z,19.45
2023-01-29T09:52:38.929Z,19.09
2023-01-29T09:55:31.216Z,18.78
2023-01-29T09:58:06.185Z,18.15
2023-01-29T10:00:48.232Z,17.95
2023-01-29T10:03:42.027Z,17.38
2023-01-29T10:06:22.633Z,17.04
2023-01-29T10:09:26.459Z,17.46
2023-01-29T10:12:31.257Z,17.77
2023-01-29T10:15:06.699Z,17.66
2023-01-29T10:18:03.835Z,18.10
2023-01-29T10:21:15.364Z,18.00
2023-01-29T10:23:49.350Z,17.41
2023-01-29T10:26:18.897Z,17.59
2023-01-29T10:28:50.797Z,18.59
2023-01-29T10:31:25.450Z,19.05
2023-01-29T10:34:01.906Z,19.14
2023-01-29T10:36:58.736Z,20.55
2023-01-29T10:39:27.037Z,21.71
2023-01-29T10:42:14.827Z,23.03
2023-01-29T10:45:02.463Z,23.66
2023-01-29T10:47:41.811Z,24.27
2023-01-29T10:50:42.420Z,24.97
2023-01-29T10:53:41.291Z,25.26
2023-01-29T10:56:49.335Z,25.49
2023-01-29T10:59:36.977Z,25.55
2023-01-29T11:02:18.156Z,25.64
2023-01-29T11:04:46.172Z,26.11
2023-01-29T11:07:15.818Z,26.46
2023-01-29T11:10:00.993Z,26.98
2023-01-29T11:12:32.222Z,27.23
2023-01-29T11:15:24.128Z,26.72
2023-01-29T11:18:06.078Z,26.02
2023-01-29T11:20:34.137Z,25.75
2023-01-29T11:23:01.042Z,25.93
2023-01-29T11:25:29.966Z,26.14
2023-01-29T11:28:01.868Z,26.16
2023-01-29T11:30:41.465Z,26.14
2023-01-29T11:33:22.637Z,25.60
2023-01-29T11:35:52.776Z,24.83
2023-01-29T11:38:28.358Z,24.01
2023-01-29T11:41:07.598Z,23.41
2023-01-29T11:43:34.626Z,22.58
2023-01-29T11:46:07.467Z,22.06
2023-01-29T11:48:46.222Z,21.64
2023-01-29T11:51:25.769Z,20.43
2023-01-29T11:54:04.415Z,19.90
2023-01-29T11:56:40.006Z,19.61
2023-01-29T11:59:21.325Z,18.69
2023-01-29T12:01:48.398Z,18.46
2023-01-29T12:04:26.397Z,18.57
2023-01-29T12:06:54.719Z,18.40
2023-01-29T12:09:28.333Z,18.04
2023-01-29T12:11:55.950Z,17.89
2023-01-29T12:14:33.622Z,18.00
2023-01-29T12:17:15.377Z,17.44
2023-01-29T12:20:00.044Z,16.80
2023-01-29T12:23:02.130Z,16.20
2023-01-29T12:25:55.269Z,16.62
2023-01-29T12:28:37.043Z,16.60
2023-01-29T12:31:26.704Z,16.68
2023-01-29T12:34:16.818Z,16.78
2023-01-29T12:36:59.583Z,16.75
2023-01-29T12:39:27.140Z,16.72
2023-01-29T12:42:04.740Z,16.47
2023-01-29T12:44:43.872Z,15.90
2023-01-29T12:47:19.775Z,15.78
2023-01-29T12:49:53.200Z,15.30
2023-01-29T12:52:36.675Z,15.48
2023-01-29T12:55:13.862Z,15.61
2023-01-29T12:58:02.271Z,15.75
2023-01-29T13:00:43.634Z,15.93
2023-01-29T13:03:44.406Z,15.80
2023-01-29T13:06:22.893Z,15.60
2023-01-29T13:08:58.119Z,15.67
2023-01-29T13:11:34.160Z,15.82
2023-01-29T13:14:07.422Z,14.79
2023-01-29T13:16:41.602Z,14.62
2023-01-29T13:19:33.350Z,14.72
2023-01-29T13:22:05.517Z,14.56
2023-01-29T13:24:40.995Z,14.50
2023-01-29T13:27:20.175Z,14.00
2023-01-29T13:29:47.399Z,13.57
2023-01-29T13:32:22.003Z,13.06
2023-01-29T13:34:50.710Z,13.12
2023-01-29T13:37:38.990Z,12.93
2023-01-29T13:40:08.383Z,13.18
2023-01-29T13:42:46.431Z,13.08
2023-01-29T13:45:35.736Z,12.87
2023-01-29T13:48:32.597Z,12.47
2023-01-29T13:51:04.864Z,12.72
2023-01-29T13:53:38.275Z,12.78
2023-01-29T13:56:30.182Z,12.16
2023-01-29T13:58:58.274Z,12.38
2023-01-29T14:01:46.957Z,12.52
2023-01-29T14:04:22.790Z,12.44
2023-01-29T14:06:57.674Z,12.46
2023-01-29T14:10:09.451Z,12.55
2023-01-29T14:12:39.819Z,12.52
2023-01-29T14:15:19.034Z,12.39
2023-01-29T14:18:09.258Z,12.35
2023-01-29T14:20:47.066Z,12.36
2023-01-29T14:23:28.142Z,12.52
2023-01-29T14:25:55.886Z,12.24
2023-01-29T14:28:29.953Z,12.38
2023-01-29T14:30:57.251Z,12.46
2023-01-29T14:33:43.600Z,12.49
2023-01-29T14:36:14.645Z,12.61
2023-01-29T14:38:51.147Z,12.78
2023-01-29T14:41:34.833Z,12.60
2023-01-29T14:44:46.868Z,12.28
2023-01-29T14:47:28.906Z,12.02
2023-01-29T14:49:57.986Z,11.62
2023-01-29T14:52:44.285Z,11.50
2023-01-29T14:55:31.235Z,11.49
2023-01-29T14:57:59.717Z,11.51
2023-01-29T15:00:35.062Z,11.52
2023-01-29T15:03:12.505Z,11.36
2023-01-29T15:05:42.096Z,11.55
2023-01-29T15:08:30.278Z,11.55
2023-01-29T15:11:19.519Z,11.47
2023-01-29T15:13:50.774Z,11.80
2023-01-29T15:16:24.454Z,11.80
2023-01-29T15:18:57.199Z,11.76
2023-01-29T15:21:24.094Z,11.96
2023-01-29T15:24:04.883Z,12.04
2023-01-29T15:26:32.221Z,12.03
2023-01-29T15:29:05.128Z,11.84
2023-01-29T15:31:32.572Z,11.75
2023-01-29T15:34:06.258Z,11.69
2023-01-29T15:36:33.591Z,11.64
2023-01-29T15:39:09.555Z,11.86
2023-01-29T15:41:36.545Z,11.93
2023-01-29T15:44:04.458Z,11.84
2023-01-29T15:46:36.641Z,11.59
2023-01-29T15:49:10.064Z,11.71
2023-01-29T15:51:37.113Z,11.70
2023-01-29T15:54:09.743Z,11.77
2023-01-29T15:56:40.392Z,11.83
2023-01-29T15:59:16.964Z,11.73
2023-01-29T16:01:44.099Z,11.74
2023-01-29T16:04:20.809Z,11.83
2023-01-29T16:06:50.653Z,11.89
2023-01-29T16:09:26.025Z,11.78
2023-01-29T16:11:54.859Z,11.67
2023-01-29T16:14:25.654Z,11.51
2023-01-29T16:16:53.002Z,11.65
2023-01-29T16:19:29.350Z,11.64
2023-01-29T16:22:03.394Z,11.75
2023-01-29T16:24:32.566Z,11.79
2023-01-29T16:27:10.056Z,11.85
2023-01-29T16:29:37.085Z,11.86
2023-01-29T16:32:05.488Z,11.87
2023-01-29T16:34:37.536Z,11.86
2023-01-29T16:37:26.672Z,11.83
2023-01-29T16:39:53.907Z,11.79
2023-01-29T16:42:30.499Z,11.81
2023-01-29T16:45:05.836Z,11.77
2023-01-29T16:47:34.670Z,11.72
2023-01-29T16:50:20.270Z,11.68
2023-01-29T16:53:05.761Z,11.63
2023-01-29T16:55:37.755Z,11.52
2023-01-29T16:58:20.228Z,11.34
2023-01-29T17:00:51.350Z,11.34
2023-01-29T17:03:19.944Z,11.32
2023-01-29T17:05:47.848Z,11.26
2023-01-29T17:08:30.134Z,11.27
2023-01-29T17:10:57.407Z,11.25
2023-01-29T17:13:33.397Z,11.21
2023-01-29T17:16:05.738Z,11.23
2023-01-29T17:18:32.754Z,11.21
2023-01-29T17:20:59.741Z,11.20
2023-01-29T17:23:26.982Z,11.12
2023-01-29T17:25:54.178Z,11.10
2023-01-29T17:28:22.017Z,11.01
2023-01-29T17:31:04.899Z,10.95
2023-01-29T17:33:57.405Z,10.84
2023-01-29T17:36:24.455Z,10.79
2023-01-29T17:38:51.295Z,10.77
2023-01-29T17:41:30.511Z,10.78
2023-01-29T17:43:57.614Z,10.80
2023-01-29T17:46:24.694Z,10.81
2023-01-29T17:48:52.614Z,10.77
2023-01-29T17:51:19.715Z,10.71
2023-01-29T17:53:47.476Z,10.64
2023-01-29T17:56:24.145Z,10.65
2023-01-29T17:58:51.067Z,10.60
2023-01-29T18:01:17.957Z,10.59
2023-01-29T18:03:44.949Z,10.55
2023-01-29T18:06:29.532Z,10.55
2023-01-29T18:08:56.980Z,10.51
2023-01-29T18:11:23.869Z,10.49
2023-01-29T18:13:51.381Z,10.52
2023-01-29T18:16:21.747Z,10.48
2023-01-29T18:18:49.415Z,10.48
2023-01-29T18:21:17.715Z,10.46
2023-01-29T18:23:44.757Z,10.46
2023-01-29T18:26:12.441Z,10.47
2023-01-29T18:28:39.506Z,10.47
2023-01-29T18:31:06.737Z,10.48
2023-01-29T18:33:35.265Z,10.47
2023-01-29T18:36:05.044Z,10.45
2023-01-29T18:38:33.497Z,10.45
2023-01-29T18:41:10.761Z,10.47
2023-01-29T18:43:39.146Z,10.41
2023-01-29T18:46:06.757Z,10.40
2023-01-29T18:48:34.403Z,10.31
2023-01-29T18:51:01.502Z,10.35
2023-01-29T18:53:28.420Z,10.34
2023-01-29T18:56:00.135Z,10.29
2023-01-29T18:58:35.780Z,10.31
2023-01-29T19:01:10.983Z,10.33
2023-01-29T19:03:40.611Z,10.35
2023-01-29T19:06:10.065Z,10.32
2023-01-29T19:08:41.129Z,10.30
2023-01-29T19:11:09.109Z,10.26
2023-01-29T19:13:37.130Z,10.23
2023-01-29T19:16:08.284Z,10.17
2023-01-29T19:18:35.446Z,10.14
2023-01-29T19:21:07.764Z,10.08
2023-01-29T19:23:34.773Z,10.07
2023-01-29T19:26:01.823Z,10.05
2023-01-29T19:28:32.140Z,10.01
2023-01-29T19:31:05.632Z,9.96
2023-01-29T19:33:33.231Z,9.94
2023-01-29T19:36:02.954Z,9.91
2023-01-29T19:38:33.701Z,9.88
2023-01-29T19:41:07.988Z,9.83
2023-01-29T19:43:41.560Z,9.78
2023-01-29T19:46:14.767Z,9.74
2023-01-29T19:48:42.572Z,9.70
2023-01-29T19:51:11.014Z,9.67
2023-01-29T19:53:40.210Z,9.62
2023-01-29T19:56:16.272Z,9.60
2023-01-29T19:58:46.153Z,9.55
2023-01-29T20:01:34.859Z,9.53
2023-01-29T20:04:02.279Z,9.50
2023-01-29T20:06:33.239Z,9.45
2023-01-29T20:09:02.368Z,9.42
2023-01-29T20:11:29.465Z,9.40
2023-01-29T20:14:04.565Z,9.37
2023-01-29T20:16:34.609Z,9.33
2023-01-29T20:19:14.282Z,9.29
2023-01-29T20:21:45.307Z,9.26
2023-01-29T20:24:15.672Z,9.19
2023-01-29T20:26:43.091Z,9.15
2023-01-29T20:29:10.075Z,9.13
2023-01-29T20:31:39.922Z,9.07
2023-01-29T20:34:07.036Z,9.07
2023-01-29T20:36:34.062Z,9.05
2023-01-29T20:39:01.099Z,9.02
2023-01-29T20:41:28.181Z,8.98
2023-01-29T20:43:55.087Z,8.93
2023-01-29T20:46:22.138Z,8.90
2023-01-29T20:49:17.257Z,8.87
2023-01-29T20:51:47.870Z,8.85
2023-01-29T20:54:15.106Z,8.82
2023-01-29T20:56:42.604Z,8.78
2023-01-29T20:59:10.713Z,8.76
2023-01-29T21:01:37.605Z,8.72
2023-01-29T21:04:08.560Z,8.71
2023-01-29T21:06:35.859Z,8.69
2023-01-29T21:09:06.107Z,8.67
2023-01-29T21:11:33.740Z,8.66
2023-01-29T21:14:02.014Z,8.63
2023-01-29T21:16:29.283Z,8.60
2023-01-29T21:18:59.769Z,8.55
2023-01-29T21:21:26.880Z,8.47
2023-01-29T21:23:54.361Z,8.50
2023-01-29T21:26:23.351Z,8.46
2023-01-29T21:28:50.592Z,8.46
2023-01-29T21:31:17.846Z,8.44
2023-01-29T21:33:45.395Z,8.43
2023-01-29T21:36:12.473Z,8.41
2023-01-29T21:38:40.063Z,8.37
2023-01-29T21:41:09.896Z,8.31
2023-01-29T21:43:37.742Z,8.30
2023-01-29T21:46:11.835Z,8.28
2023-01-29T21:48:43.414Z,8.26
2023-01-29T21:51:10.501Z,8.24
2023-01-29T21:53:37.514Z,8.17
2023-01-29T21:56:05.951Z,8.15
2023-01-29T21:58:33.052Z,8.10
2023-01-29T22:01:35.876Z,8.04
2023-01-29T22:03:47.669Z,8.00
2023-01-29T22:06:15.419Z,7.96
2023-01-29T22:08:48.509Z,7.92
2023-01-29T22:11:15.688Z,7.84
2023-01-29T22:13:42.730Z,7.83
2023-01-29T22:16:09.661Z,7.78
2023-01-29T22:18:36.599Z,7.66
2023-01-29T22:21:03.681Z,7.66
2023-01-29T22:23:31.960Z,7.60
2023-01-29T22:26:03.891Z,7.64
2023-01-29T22:28:32.191Z,7.66
2023-01-29T22:31:03.217Z,7.61
2023-01-29T22:33:30.566Z,7.57
2023-01-29T22:35:58.266Z,7.53
2023-01-29T22:38:25.595Z,7.50
2023-01-29T22:40:57.519Z,7.45
2023-01-29T22:43:29.495Z,7.47
2023-01-29T22:45:59.529Z,7.49
2023-01-29T22:48:28.484Z,7.52
2023-01-29T22:51:10.074Z,7.51
2023-01-29T22:53:38.648Z,7.51
2023-01-29T22:56:06.809Z,7.51
2023-01-29T22:58:34.444Z,7.50
2023-01-29T23:01:02.339Z,7.50
2023-01-29T23:03:29.348Z,7.49
2023-01-29T23:05:56.490Z,7.50
2023-01-29T23:08:23.448Z,7.47
2023-01-29T23:10:50.404Z,7.43
2023-01-29T23:13:17.453Z,7.42
2023-01-29T23:15:44.383Z,7.40
2023-01-29T23:18:11.368Z,7.34
2023-01-29T23:20:38.453Z,7.37
2023-01-29T23:23:05.362Z,7.37
2023-01-29T23:25:50.656Z,7.32
2023-01-29T23:28:17.946Z,7.32
2023-01-29T23:30:45.414Z,7.32
2023-01-29T23:33:12.706Z,7.33
2023-01-29T23:35:40.032Z,7.32
2023-01-29T23:38:06.924Z,7.23
2023-01-29T23:40:33.874Z,7.27
2023-01-29T23:43:00.755Z,7.17
2023-01-29T23:45:27.671Z,7.19
2023-01-29T23:47:54.552Z,7.18
2023-01-29T23:50:21.455Z,7.18
2023-01-29T23:52:48.367Z,7.19
2023-01-29T23:55:15.465Z,7.20
2023-01-29T23:57:42.379Z,7.16
